Time;durP1;ratioP1;P1;durP2;ratioP2;P2;SDS_P1;SDS_P2;PMS_P1;PMS_P2;Temp;Humidity;BMP_temperature;BMP_pressure;BME280_temperature;BME280_humidity;BME280_pressure;Samples;Min_cycle;Max_cycle;Signal;HPM_P1;HPM_P2
2023/02/06 00:01:11;;;;;;;;;;;4.40;82.60;;;;;;9182484;19;20340;-60
2023/02/06 00:04:15;;;;;;;;;;;4.40;82.60;;;;;;9182439;19;19998;-60
2023/02/06 00:07:20;;;;;;;;;;;4.40;82.70;;;;;;9182869;19;19937;-62
2023/02/06 00:10:26;;;;;;;;;;;4.30;82.60;;;;;;9176225;19;20289;-60
2023/02/06 00:13:32;;;;;;;;;;;4.40;82.70;;;;;;9182802;19;19922;-62
2023/02/06 00:16:36;;;;;;;;;;;4.30;82.70;;;;;;9182662;19;19951;-60
2023/02/06 00:19:41;;;;;;;;;;;4.30;82.70;;;;;;9180269;19;19927;-59
2023/02/06 00:22:45;;;;;;;;;;;4.30;82.70;;;;;;9182952;19;19919;-62
2023/02/06 00:25:52;;;;;;;;;;;4.30;82.70;;;;;;9182652;19;20355;-62
2023/02/06 00:28:56;;;;;;;;;;;4.30;82.70;;;;;;9182424;19;19926;-61
2023/02/06 00:32:02;;;;;;;;;;;4.20;82.70;;;;;;9182790;19;19921;-61
2023/02/06 00:35:06;;;;;;;;;;;4.20;82.70;;;;;;9178938;19;19948;-62
2023/02/06 00:38:12;;;;;;;;;;;4.20;82.80;;;;;;9177023;19;19919;-59
2023/02/06 00:41:18;;;;;;;;;;;4.20;82.80;;;;;;9181598;19;19954;-60
2023/02/06 00:44:23;;;;;;;;;;;4.10;82.70;;;;;;9181254;19;19930;-60
2023/02/06 00:47:27;;;;;;;;;;;4.20;82.80;;;;;;9182013;19;19919;-61
2023/02/06 00:50:33;;;;;;;;;;;4.10;82.80;;;;;;9180089;19;19922;-62
2023/02/06 00:53:36;;;;;;;;;;;4.10;82.80;;;;;;9181203;19;19946;-60
2023/02/06 00:56:44;;;;;;;;;;;4.10;82.80;;;;;;9181424;19;19918;-59
2023/02/06 00:59:47;;;;;;;;;;;4.10;82.80;;;;;;9179727;19;19923;-62
2023/02/06 01:02:53;;;;;;;;;;;4.10;82.80;;;;;;9181383;19;19923;-59
2023/02/06 01:05:57;;;;;;;;;;;4.10;83.40;;;;;;9181302;19;19930;-61
2023/02/06 01:09:07;;;;;;;;;;;4.10;82.80;;;;;;9177563;19;20678;-59
2023/02/06 01:12:13;;;;;;;;;;;4.00;82.70;;;;;;9173571;19;19911;-62
2023/02/06 01:15:19;;;;;;;;;;;4.00;82.80;;;;;;9178343;19;19952;-62
2023/02/06 01:18:22;;;;;;;;;;;4.00;82.70;;;;;;9181078;19;20358;-61
2023/02/06 01:21:28;;;;;;;;;;;4.00;82.70;;;;;;9180812;19;19918;-63
2023/02/06 01:24:34;;;;;;;;;;;4.00;82.80;;;;;;9180341;19;20324;-62
2023/02/06 01:27:41;;;;;;;;;;;4.00;82.80;;;;;;9180680;19;19926;-62
2023/02/06 01:30:45;;;;;;;;;;;3.90;82.80;;;;;;9178151;19;19937;-63
2023/02/06 01:33:58;;;;;;;;;;;3.90;82.70;;;;;;9180643;19;19927;-61
2023/02/06 01:37:06;;;;;;;;;;;3.90;82.70;;;;;;9180907;19;20032;-63
2023/02/06 01:40:14;;;;;;;;;;;3.90;82.70;;;;;;9178946;19;20558;-62
2023/02/06 01:43:20;;;;;;;;;;;3.90;82.70;;;;;;9180245;19;19926;-61
2023/02/06 01:46:25;;;;;;;;;;;3.80;82.70;;;;;;9179549;19;19923;-62
2023/02/06 01:49:32;;;;;;;;;;;3.80;82.80;;;;;;9179490;19;19918;-61
2023/02/06 01:52:38;;;;;;;;;;;3.80;82.80;;;;;;9177978;19;20352;-62
2023/02/06 01:55:42;;;;;;;;;;;3.80;82.80;;;;;;9179410;19;19922;-61
2023/02/06 01:58:52;;;;;;;;;;;3.80;82.80;;;;;;9178007;19;19921;-62
2023/02/06 02:01:56;;;;;;;;;;;3.80;82.80;;;;;;9177325;19;20604;-62
2023/02/06 02:05:02;;;;;;;;;;;3.80;82.80;;;;;;9176276;19;19910;-61
2023/02/06 02:08:09;;;;;;;;;;;3.80;82.80;;;;;;9177295;19;19919;-63
2023/02/06 02:11:16;;;;;;;;;;;3.70;82.80;;;;;;9171523;19;19922;-61
2023/02/06 02:14:22;;;;;;;;;;;3.70;82.80;;;;;;9178568;19;20334;-61
2023/02/06 02:17:33;;;;;;;;;;;3.70;82.80;;;;;;9178741;19;20530;-62
2023/02/06 02:20:53;;;;;;;;;;;3.70;82.80;;;;;;9178511;19;19910;-61
2023/02/06 02:24:02;;;;;;;;;;;3.60;82.80;;;;;;9178409;19;19915;-62
2023/02/06 02:27:27;;;;;;;;;;;3.60;82.90;;;;;;9177808;19;19922;-62
2023/02/06 02:30:57;;;;;;;;;;;3.60;82.80;;;;;;9174555;19;19921;-61
2023/02/06 02:34:11;;;;;;;;;;;3.60;82.90;;;;;;9178392;19;19914;-62
2023/02/06 02:37:26;;;;;;;;;;;3.60;82.90;;;;;;9176730;19;19915;-64
2023/02/06 02:40:35;;;;;;;;;;;3.60;83.00;;;;;;9171543;19;20727;-63
2023/02/06 02:43:44;;;;;;;;;;;3.60;83.00;;;;;;9173954;19;19918;-61
2023/02/06 02:46:50;;;;;;;;;;;3.60;83.00;;;;;;9174034;19;19945;-61
2023/02/06 02:49:57;;;;;;;;;;;3.60;82.90;;;;;;9173251;19;19932;-62
2023/02/06 02:53:04;;;;;;;;;;;3.60;82.90;;;;;;9169567;19;19923;-62
2023/02/06 02:56:17;;;;;;;;;;;3.60;82.90;;;;;;9169092;19;19919;-62
2023/02/06 02:59:24;;;;;;;;;;;3.60;82.90;;;;;;9166509;19;19935;-62
2023/02/06 03:02:34;;;;;;;;;;;3.60;82.90;;;;;;9169927;19;19929;-61
2023/02/06 03:05:41;;;;;;;;;;;3.60;82.90;;;;;;9171699;19;19919;-64
2023/02/06 03:08:51;;;;;;;;;;;3.60;82.90;;;;;;9169666;19;19934;-60
2023/02/06 03:12:01;;;;;;;;;;;3.70;83.00;;;;;;9161606;19;19932;-62
2023/02/06 03:15:10;;;;;;;;;;;3.70;83.00;;;;;;9172928;19;19925;-60
2023/02/06 03:18:17;;;;;;;;;;;3.70;83.00;;;;;;9170579;19;19954;-62
2023/02/06 03:21:24;;;;;;;;;;;3.70;83.00;;;;;;9169660;19;19919;-60
2023/02/06 03:24:32;;;;;;;;;;;3.70;83.00;;;;;;9170385;19;19940;-64
2023/02/06 03:27:39;;;;;;;;;;;3.70;83.00;;;;;;9172038;19;19930;-61
2023/02/06 03:30:44;;;;;;;;;;;3.70;83.00;;;;;;9166621;19;20354;-62
2023/02/06 03:33:51;;;;;;;;;;;3.70;83.00;;;;;;9172747;19;19918;-61
2023/02/06 03:36:55;;;;;;;;;;;3.70;83.00;;;;;;9173076;19;19918;-59
2023/02/06 03:40:03;;;;;;;;;;;3.80;83.10;;;;;;9178728;19;20278;-59
2023/02/06 03:43:08;;;;;;;;;;;3.70;83.00;;;;;;9179835;19;19985;-61
2023/02/06 03:46:15;;;;;;;;;;;3.80;83.00;;;;;;9180805;19;19919;-60
2023/02/06 03:49:19;;;;;;;;;;;3.80;83.00;;;;;;9177121;19;19930;-62
2023/02/06 03:52:27;;;;;;;;;;;3.80;83.00;;;;;;9182017;19;19919;-63
2023/02/06 03:55:32;;;;;;;;;;;3.80;83.00;;;;;;9175493;19;19926;-60
2023/02/06 03:58:38;;;;;;;;;;;3.80;83.10;;;;;;9176226;19;20253;-62
2023/02/06 04:01:43;;;;;;;;;;;3.80;83.00;;;;;;9182445;19;20295;-60
2023/02/06 04:04:49;;;;;;;;;;;3.80;83.10;;;;;;9181513;19;19921;-60
2023/02/06 04:07:55;;;;;;;;;;;3.80;83.10;;;;;;9176970;19;20476;-61
2023/02/06 04:11:02;;;;;;;;;;;3.70;83.00;;;;;;9175654;19;19930;-60
2023/02/06 04:14:06;;;;;;;;;;;3.70;83.00;;;;;;9183005;19;19922;-61
2023/02/06 04:17:12;;;;;;;;;;;3.70;83.00;;;;;;9182735;19;19934;-62
2023/02/06 04:20:17;;;;;;;;;;;3.70;83.10;;;;;;9182497;19;19927;-62
2023/02/06 04:23:23;;;;;;;;;;;3.70;83.10;;;;;;9182054;19;20443;-60
2023/02/06 04:26:28;;;;;;;;;;;3.70;83.10;;;;;;9183243;19;19925;-60
2023/02/06 04:29:34;;;;;;;;;;;3.70;83.10;;;;;;9181921;19;19929;-60
2023/02/06 04:32:37;;;;;;;;;;;3.70;83.10;;;;;;9182551;19;19944;-61
2023/02/06 04:35:43;;;;;;;;;;;3.70;83.10;;;;;;9182924;19;19923;-61
2023/02/06 04:38:47;;;;;;;;;;;3.80;83.10;;;;;;9180818;19;19919;-60
2023/02/06 04:41:54;;;;;;;;;;;3.70;83.70;;;;;;9182420;19;19926;-60
2023/02/06 04:44:58;;;;;;;;;;;3.70;83.10;;;;;;9182288;19;19915;-61
2023/02/06 04:48:04;;;;;;;;;;;3.70;83.10;;;;;;9182095;19;19929;-61
2023/02/06 04:51:07;;;;;;;;;;;3.70;83.00;;;;;;9180583;19;19919;-60
2023/02/06 04:54:16;;;;;;;;;;;3.70;83.00;;;;;;9179765;19;19918;-60
2023/02/06 04:57:22;;;;;;;;;;;3.70;83.00;;;;;;9183077;19;19918;-60
2023/02/06 05:00:28;;;;;;;;;;;3.70;83.00;;;;;;9182212;19;19925;-61
2023/02/06 05:03:31;;;;;;;;;;;3.70;83.00;;;;;;9182063;19;20380;-65
2023/02/06 05:06:37;;;;;;;;;;;3.60;82.90;;;;;;9181419;19;19926;-60
2023/02/06 05:09:41;;;;;;;;;;;3.60;82.90;;;;;;9179993;19;19929;-62
2023/02/06 05:12:49;;;;;;;;;;;3.60;83.00;;;;;;9172337;19;19914;-60
2023/02/06 05:15:53;;;;;;;;;;;3.60;83.00;;;;;;9180636;19;19934;-61
2023/02/06 05:18:59;;;;;;;;;;;3.60;83.00;;;;;;9180406;19;19923;-61
2023/02/06 05:22:02;;;;;;;;;;;3.60;83.00;;;;;;9181140;19;19911;-61
2023/02/06 05:25:08;;;;;;;;;;;3.50;83.00;;;;;;9180593;19;19929;-60
2023/02/06 05:28:14;;;;;;;;;;;3.50;83.00;;;;;;9180655;19;19918;-62
2023/02/06 05:31:20;;;;;;;;;;;3.50;83.00;;;;;;9179174;19;20267;-61
2023/02/06 05:34:24;;;;;;;;;;;3.40;83.00;;;;;;9180441;19;20605;-61
2023/02/06 05:37:29;;;;;;;;;;;3.40;83.00;;;;;;9181091;19;19933;-61
2023/02/06 05:40:33;;;;;;;;;;;3.40;83.00;;;;;;9180114;19;19930;-63
2023/02/06 05:43:41;;;;;;;;;;;3.40;83.10;;;;;;9179967;19;19930;-60
2023/02/06 05:46:47;;;;;;;;;;;3.30;83.10;;;;;;9180197;19;19944;-61
2023/02/06 05:49:52;;;;;;;;;;;3.30;83.10;;;;;;9176846;19;19922;-61
2023/02/06 05:52:56;;;;;;;;;;;3.30;83.10;;;;;;9179497;19;19922;-58
2023/02/06 05:56:02;;;;;;;;;;;3.30;83.10;;;;;;9179639;19;19915;-61
2023/02/06 05:59:07;;;;;;;;;;;3.30;83.20;;;;;;9176938;19;19957;-60
2023/02/06 06:02:13;;;;;;;;;;;3.30;83.20;;;;;;9179292;19;20268;-62
2023/02/06 06:05:17;;;;;;;;;;;3.30;83.80;;;;;;9179082;19;19911;-61
2023/02/06 06:08:24;;;;;;;;;;;3.30;83.50;;;;;;9178210;19;19929;-63
2023/02/06 06:11:28;;;;;;;;;;;3.30;83.20;;;;;;9171937;19;20766;-59
2023/02/06 06:14:35;;;;;;;;;;;3.30;83.20;;;;;;9177086;19;19935;-60
2023/02/06 06:17:39;;;;;;;;;;;3.30;83.20;;;;;;9172049;19;19930;-63
2023/02/06 06:20:45;;;;;;;;;;;3.30;83.20;;;;;;9176721;19;19911;-62
2023/02/06 06:23:48;;;;;;;;;;;3.30;83.20;;;;;;9177999;19;19934;-61
2023/02/06 06:26:54;;;;;;;;;;;3.30;83.20;;;;;;9178360;19;19926;-61
2023/02/06 06:29:59;;;;;;;;;;;3.30;83.30;;;;;;9178029;19;19923;-61
2023/02/06 06:33:05;;;;;;;;;;;3.30;83.20;;;;;;9177752;19;19918;-63
2023/02/06 06:36:10;;;;;;;;;;;3.30;83.20;;;;;;9178007;19;19915;-61
2023/02/06 06:39:18;;;;;;;;;;;3.30;83.30;;;;;;9176458;19;19915;-60
2023/02/06 06:42:22;;;;;;;;;;;3.30;83.20;;;;;;9177856;19;19931;-60
2023/02/06 06:45:29;;;;;;;;;;;3.40;83.30;;;;;;9175463;19;19923;-60
2023/02/06 06:48:35;;;;;;;;;;;3.40;83.30;;;;;;9178346;19;19922;-61
2023/02/06 06:51:40;;;;;;;;;;;3.40;83.30;;;;;;9175205;19;19923;-60
2023/02/06 06:54:44;;;;;;;;;;;3.40;83.30;;;;;;9177382;19;19926;-62
2023/02/06 06:57:50;;;;;;;;;;;3.40;83.20;;;;;;9177896;19;19938;-62
2023/02/06 07:00:55;;;;;;;;;;;3.40;83.30;;;;;;9176414;19;19951;-60
2023/02/06 07:04:01;;;;;;;;;;;3.40;83.30;;;;;;9177168;19;20344;-61
2023/02/06 07:07:05;;;;;;;;;;;3.40;83.30;;;;;;9176627;19;19925;-61
2023/02/06 07:10:11;;;;;;;;;;;3.40;83.30;;;;;;9171644;19;20348;-61
2023/02/06 07:13:15;;;;;;;;;;;3.40;83.30;;;;;;9168592;19;20654;-62
2023/02/06 07:16:25;;;;;;;;;;;3.40;83.30;;;;;;9171762;19;19926;-64
2023/02/06 07:19:28;;;;;;;;;;;3.40;83.30;;;;;;9172692;19;20050;-62
2023/02/06 07:22:34;;;;;;;;;;;3.40;83.30;;;;;;9171892;19;19919;-61
2023/02/06 07:25:38;;;;;;;;;;;3.50;83.30;;;;;;9173696;19;19994;-62
2023/02/06 07:28:43;;;;;;;;;;;3.50;83.30;;;;;;9169881;19;20363;-65
2023/02/06 07:31:49;;;;;;;;;;;3.50;83.30;;;;;;9171902;19;19934;-61
2023/02/06 07:34:55;;;;;;;;;;;3.50;83.40;;;;;;9172026;19;19919;-61
2023/02/06 07:37:58;;;;;;;;;;;3.50;83.30;;;;;;9169315;19;20295;-62
2023/02/06 07:41:04;;;;;;;;;;;3.50;83.30;;;;;;9175872;19;19925;-62
2023/02/06 07:44:08;;;;;;;;;;;3.50;83.40;;;;;;9174708;19;20324;-60
2023/02/06 07:47:15;;;;;;;;;;;3.50;83.30;;;;;;9176539;19;19922;-60
2023/02/06 07:50:19;;;;;;;;;;;3.60;83.40;;;;;;9178975;19;19926;-60
2023/02/06 07:53:24;;;;;;;;;;;3.60;83.40;;;;;;9178000;19;19925;-64
2023/02/06 07:56:28;;;;;;;;;;;3.60;83.40;;;;;;9178023;19;19944;-60
2023/02/06 07:59:34;;;;;;;;;;;3.60;83.40;;;;;;9184090;19;20355;-60
2023/02/06 08:02:39;;;;;;;;;;;3.60;83.40;;;;;;9177175;19;20504;-60
2023/02/06 08:05:45;;;;;;;;;;;3.60;83.30;;;;;;9174141;19;19919;-63
2023/02/06 08:08:48;;;;;;;;;;;3.70;83.40;;;;;;9174861;19;20340;-62
2023/02/06 08:11:54;;;;;;;;;;;3.70;83.40;;;;;;9173508;19;20502;-61
2023/02/06 08:14:58;;;;;;;;;;;3.70;83.40;;;;;;9176162;19;19922;-62
2023/02/06 08:18:05;;;;;;;;;;;3.70;83.40;;;;;;9178820;19;19922;-62
2023/02/06 08:21:10;;;;;;;;;;;3.80;83.40;;;;;;9175323;19;19926;-60
2023/02/06 08:24:16;;;;;;;;;;;3.80;83.50;;;;;;9180602;19;20453;-61
2023/02/06 08:27:20;;;;;;;;;;;3.80;83.40;;;;;;9182752;19;20262;-62
2023/02/06 08:30:25;;;;;;;;;;;3.90;83.50;;;;;;9176798;19;19922;-61
2023/02/06 08:33:31;;;;;;;;;;;3.90;83.50;;;;;;9181249;19;19925;-62
2023/02/06 08:36:37;;;;;;;;;;;3.90;83.60;;;;;;9178597;19;19907;-62
2023/02/06 08:39:41;;;;;;;;;;;3.90;83.50;;;;;;9175980;19;19934;-63
2023/02/06 08:42:49;;;;;;;;;;;4.00;83.50;;;;;;9180098;19;20256;-61
2023/02/06 08:45:54;;;;;;;;;;;4.00;83.50;;;;;;9182879;19;19922;-61
2023/02/06 08:49:03;;;;;;;;;;;4.10;83.60;;;;;;9177218;19;19911;-60
2023/02/06 08:52:07;;;;;;;;;;;4.10;83.60;;;;;;9172415;19;19934;-62
2023/02/06 08:55:13;;;;;;;;;;;4.10;83.60;;;;;;9179233;19;19942;-62
2023/02/06 08:58:16;;;;;;;;;;;4.20;83.60;;;;;;9179029;19;19923;-63
2023/02/06 09:01:22;;;;;;;;;;;4.20;83.60;;;;;;9178918;19;19919;-63
2023/02/06 09:04:30;;;;;;;;;;;4.20;83.60;;;;;;9173637;19;20350;-61
2023/02/06 09:07:36;;;;;;;;;;;4.30;83.60;;;;;;9178832;19;19923;-61
2023/02/06 09:10:39;;;;;;;;;;;4.40;83.70;;;;;;9170448;19;19938;-62
2023/02/06 09:13:46;;;;;;;;;;;4.40;83.70;;;;;;9179477;19;19922;-63
2023/02/06 09:16:52;;;;;;;;;;;4.50;83.70;;;;;;9178124;19;19926;-61
2023/02/06 09:19:59;;;;;;;;;;;4.50;83.70;;;;;;9175690;19;20525;-60
2023/02/06 09:23:03;;;;;;;;;;;4.60;83.70;;;;;;9174348;19;19930;-61
2023/02/06 09:26:09;;;;;;;;;;;4.60;83.70;;;;;;9174702;19;19922;-65
2023/02/06 09:29:13;;;;;;;;;;;4.60;83.70;;;;;;9176422;19;20509;-62
2023/02/06 09:32:21;;;;;;;;;;;4.70;83.70;;;;;;9170161;19;19994;-63
2023/02/06 09:35:26;;;;;;;;;;;4.70;83.70;;;;;;9170617;19;19929;-62
2023/02/06 09:38:32;;;;;;;;;;;4.80;83.70;;;;;;9176165;19;19919;-63
2023/02/06 09:41:39;;;;;;;;;;;4.80;84.30;;;;;;9176402;19;20307;-61
2023/02/06 09:44:47;;;;;;;;;;;4.80;83.70;;;;;;9173618;19;19925;-63
2023/02/06 09:47:53;;;;;;;;;;;4.90;83.80;;;;;;9165780;19;19925;-60
2023/02/06 09:51:04;;;;;;;;;;;4.90;83.70;;;;;;9174187;19;19926;-61
2023/02/06 09:54:11;;;;;;;;;;;5.00;83.80;;;;;;9172294;19;19933;-61
2023/02/06 09:57:20;;;;;;;;;;;5.00;83.80;;;;;;9172138;19;19923;-60
2023/02/06 10:00:29;;;;;;;;;;;5.10;83.80;;;;;;9173120;19;19941;-63
2023/02/06 10:03:40;;;;;;;;;;;5.10;83.80;;;;;;9175354;19;19922;-61
2023/02/06 10:06:49;;;;;;;;;;;5.10;83.80;;;;;;9172278;19;19922;-64
2023/02/06 10:09:59;;;;;;;;;;;5.20;83.80;;;;;;9163213;19;19956;-61
2023/02/06 10:13:04;;;;;;;;;;;5.20;83.90;;;;;;9165800;19;19997;-62
2023/02/06 10:16:20;;;;;;;;;;;5.30;83.90;;;;;;9176808;19;19915;-63
2023/02/06 10:19:26;;;;;;;;;;;5.40;84.00;;;;;;9177128;19;19970;-63
2023/02/06 10:22:38;;;;;;;;;;;5.40;84.60;;;;;;9176424;19;19926;-62
2023/02/06 10:25:44;;;;;;;;;;;5.50;84.00;;;;;;9171161;19;20296;-63
2023/02/06 10:28:51;;;;;;;;;;;5.60;84.00;;;;;;9176528;19;20240;-62
2023/02/06 10:31:57;;;;;;;;;;;5.60;84.00;;;;;;9173019;19;20354;-63
2023/02/06 10:35:22;;;;;;;;;;;5.70;84.10;;;;;;9176154;19;19933;-62
2023/02/06 10:38:42;;;;;;;;;;;5.80;84.10;;;;;;9169855;19;19926;-62
2023/02/06 10:41:53;;;;;;;;;;;5.90;84.70;;;;;;9162496;19;19918;-62
2023/02/06 10:44:59;;;;;;;;;;;6.00;84.10;;;;;;9171569;19;19958;-62
2023/02/06 10:48:30;;;;;;;;;;;6.00;84.00;;;;;;9172489;19;19918;-62
2023/02/06 10:51:35;;;;;;;;;;;6.10;84.10;;;;;;9174036;19;19922;-62
2023/02/06 10:54:48;;;;;;;;;;;6.20;84.10;;;;;;9177891;19;19937;-63
2023/02/06 10:57:56;;;;;;;;;;;6.30;84.00;;;;;;9171890;19;19930;-62
2023/02/06 11:01:02;;;;;;;;;;;6.30;84.00;;;;;;9173362;19;19922;-64
2023/02/06 11:04:13;;;;;;;;;;;6.40;84.00;;;;;;9172256;19;20028;-63
2023/02/06 11:07:23;;;;;;;;;;;6.40;84.10;;;;;;9174206;19;19918;-62
2023/02/06 11:10:31;;;;;;;;;;;6.50;84.10;;;;;;9165887;19;19923;-62
2023/02/06 11:13:37;;;;;;;;;;;6.60;84.40;;;;;;9172257;19;20247;-62
2023/02/06 11:16:41;;;;;;;;;;;6.70;84.10;;;;;;9176390;19;19929;-64
2023/02/06 11:19:50;;;;;;;;;;;6.80;84.20;;;;;;9177245;19;19922;-65
2023/02/06 11:22:53;;;;;;;;;;;6.80;84.20;;;;;;9171146;19;19978;-63
2023/02/06 11:26:09;;;;;;;;;;;7.00;84.30;;;;;;9170610;19;20339;-64
2023/02/06 11:29:15;;;;;;;;;;;7.00;84.20;;;;;;9177560;19;19927;-62
2023/02/06 11:32:30;;;;;;;;;;;7.10;84.20;;;;;;9171860;19;19915;-62
2023/02/06 11:35:35;;;;;;;;;;;7.20;84.20;;;;;;9172331;19;19938;-64
2023/02/06 11:38:54;;;;;;;;;;;7.30;84.20;;;;;;9169495;19;19922;-63
2023/02/06 11:42:01;;;;;;;;;;;7.40;84.20;;;;;;9169953;19;19949;-63
2023/02/06 11:45:18;;;;;;;;;;;7.40;84.10;;;;;;9168661;19;21535;-63
2023/02/06 11:48:33;;;;;;;;;;;7.50;84.20;;;;;;9174973;19;20325;-61
2023/02/06 11:51:50;;;;;;;;;;;7.60;84.20;;;;;;9177166;19;19914;-62
2023/02/06 11:54:55;;;;;;;;;;;7.60;84.20;;;;;;9178228;19;20296;-64
2023/02/06 11:58:04;;;;;;;;;;;7.70;84.20;;;;;;9174676;19;20256;-63
2023/02/06 12:01:09;;;;;;;;;;;7.70;84.10;;;;;;9176861;19;19914;-62
2023/02/06 12:04:22;;;;;;;;;;;7.80;84.10;;;;;;9176241;19;20362;-60
2023/02/06 12:07:29;;;;;;;;;;;7.80;84.10;;;;;;9174615;19;19922;-62
2023/02/06 12:10:37;;;;;;;;;;;7.90;84.20;;;;;;9167887;19;19919;-63
2023/02/06 12:13:44;;;;;;;;;;;7.90;84.20;;;;;;9169113;19;19922;-61
2023/02/06 12:16:50;;;;;;;;;;;7.90;84.80;;;;;;9175617;19;20255;-61
2023/02/06 12:19:58;;;;;;;;;;;8.00;84.20;;;;;;9170529;19;19935;-65
2023/02/06 12:23:06;;;;;;;;;;;8.00;84.20;;;;;;9171163;19;19934;-61
2023/02/06 12:26:12;;;;;;;;;;;8.10;84.30;;;;;;9176880;19;19930;-63
2023/02/06 12:29:22;;;;;;;;;;;8.10;84.20;;;;;;9169614;19;19919;-61
2023/02/06 12:32:30;;;;;;;;;;;8.20;84.30;;;;;;9168984;19;19925;-63
2023/02/06 12:35:48;;;;;;;;;;;8.20;84.30;;;;;;9174477;19;20749;-61
2023/02/06 12:39:20;;;;;;;;;;;8.20;84.30;;;;;;9168269;19;19930;-61
2023/02/06 12:42:37;;;;;;;;;;;8.30;84.30;;;;;;9168825;19;20260;-64
2023/02/06 12:45:47;;;;;;;;;;;8.30;84.30;;;;;;9172512;19;20266;-65
2023/02/06 12:48:57;;;;;;;;;;;8.30;84.30;;;;;;9171633;19;19926;-63
2023/02/06 12:52:05;;;;;;;;;;;8.40;84.40;;;;;;9170203;19;19942;-64
2023/02/06 12:55:14;;;;;;;;;;;8.40;84.30;;;;;;9168877;19;20340;-64
2023/02/06 12:58:26;;;;;;;;;;;8.50;84.30;;;;;;9168755;19;20336;-66
2023/02/06 13:01:46;;;;;;;;;;;8.50;84.30;;;;;;9169033;19;20359;-63
2023/02/06 13:08:51;;;;;;;20.52;4.40;;;8.50;83.30;;;;;;9208200;19;20604;-64
2023/02/06 13:12:08;;;;;;;26.58;4.10;;;8.50;83.90;;;;;;9201081;19;20113;-65
2023/02/06 13:15:23;;;;;;;36.40;3.72;;;8.50;84.10;;;;;;9211005;19;20022;-64
2023/02/06 13:18:52;;;;;;;20.83;3.90;;;8.50;84.20;;;;;;9213974;19;20356;-64
2023/02/06 13:22:39;;;;;;;24.98;4.05;;;8.50;84.20;;;;;;9208320;19;20111;-64
2023/02/06 13:25:50;;;;;;;24.92;3.45;;;8.50;84.30;;;;;;9208877;19;20011;-64
2023/02/06 13:29:03;;;;;;;32.50;3.72;;;8.50;84.30;;;;;;9208621;19;20018;-62
2023/02/06 13:32:41;;;;;;;26.48;4.78;;;8.50;84.20;;;;;;9206899;19;20019;-63
2023/02/06 13:35:59;;;;;;;15.10;2.85;;;8.50;84.20;;;;;;9205190;19;20018;-62
2023/02/06 13:39:15;;;;;;;16.88;2.83;;;8.50;84.10;;;;;;9209146;19;20026;-63
2023/02/06 13:42:40;;;;;;;22.70;2.95;;;8.60;84.10;;;;;;9206816;19;20018;-61
2023/02/06 13:45:51;;;;;;;22.38;3.63;;;8.60;84.00;;;;;;9206924;19;20029;-63
2023/02/06 13:49:10;;;;;;;24.30;4.80;;;8.60;84.00;;;;;;9208736;19;20022;-64
2023/02/06 13:52:26;;;;;;;25.40;3.10;;;8.60;83.90;;;;;;9208108;19;20362;-63
2023/02/06 13:55:38;;;;;;;18.83;2.72;;;8.60;83.90;;;;;;9210505;19;20029;-64
2023/02/06 13:58:51;;;;;;;19.48;4.00;;;8.60;83.90;;;;;;9205899;19;20013;-64
2023/02/06 14:01:55;;;;;;;24.35;4.15;;;8.60;83.90;;;;;;9207040;19;20040;-65
2023/02/06 14:05:03;;;;;;;16.00;3.10;;;8.60;83.90;;;;;;9208554;19;20022;-63
2023/02/06 14:08:14;;;;;;;24.60;3.35;;;8.60;84.40;;;;;;9208582;19;20573;-62
2023/02/06 14:15:26;;;;;;;20.63;2.30;;;8.60;83.70;;;;;;9204773;19;20029;-64
2023/02/06 14:18:42;;;;;;;12.85;2.70;;;8.60;83.60;;;;;;9189613;19;20015;-63
2023/02/06 14:22:01;;;;;;;17.70;3.08;;;8.60;83.60;;;;;;9170954;19;20023;-63
2023/02/06 14:25:23;;;;;;;17.45;2.95;;;8.60;83.50;;;;;;9175766;19;20029;-64
2023/02/06 14:28:38;;;;;;;13.15;2.35;;;8.60;83.30;;;;;;9172352;19;20026;-64
2023/02/06 14:32:00;;;;;;;21.15;2.45;;;8.60;83.40;;;;;;9174082;19;20078;-62
2023/02/06 14:35:28;;;;;;;14.90;3.25;;;8.60;83.20;;;;;;9166464;19;20018;-62
2023/02/06 14:39:02;;;;;;;22.25;2.90;;;8.60;83.20;;;;;;9169116;19;20019;-64
2023/02/06 14:42:12;;;;;;;17.17;3.38;;;8.60;83.20;;;;;;9170658;19;20010;-62
2023/02/06 14:45:27;;;;;;;20.05;2.58;;;8.60;83.20;;;;;;9175642;19;20018;-64
2023/02/06 14:48:39;;;;;;;23.40;2.97;;;8.60;83.20;;;;;;9166528;19;20019;-61
2023/02/06 14:51:51;;;;;;;13.85;2.55;;;8.60;83.10;;;;;;9173871;19;20503;-63
2023/02/06 14:54:55;;;;;;;17.73;3.08;;;8.60;83.10;;;;;;9174182;19;20034;-65
2023/02/06 14:58:02;;;;;;;18.40;2.97;;;8.60;83.10;;;;;;9167169;19;20007;-64
2023/02/06 15:01:20;;;;;;;19.13;2.67;;;8.60;83.10;;;;;;9170161;19;20021;-64
2023/02/06 15:04:30;;;;;;;19.33;2.38;;;8.60;82.90;;;;;;9162019;19;20014;-64
2023/02/06 15:07:37;;;;;;;15.70;2.33;;;8.60;82.90;;;;;;9160012;19;20365;-64
2023/02/06 15:10:45;;;;;;;19.17;3.22;;;8.60;82.90;;;;;;9165245;19;20014;-63
2023/02/06 15:13:51;;;;;;;22.77;3.88;;;8.60;82.80;;;;;;9172391;19;20014;-61
2023/02/06 15:16:58;;;;;;;16.08;2.55;;;8.50;82.80;;;;;;9173143;19;20802;-62
2023/02/06 15:20:25;;;;;;;20.55;2.47;;;8.50;82.70;;;;;;9170370;19;20022;-64
2023/02/06 15:23:43;;;;;;;25.75;5.20;;;8.50;82.50;;;;;;9165020;19;20022;-60
2023/02/06 15:26:52;;;;;;;13.07;2.10;;;8.50;82.60;;;;;;9162559;19;20029;-62
2023/02/06 15:29:58;;;;;;;14.70;2.58;;;8.50;82.60;;;;;;9164514;19;20577;-65
2023/02/06 15:33:02;;;;;;;16.17;2.30;;;8.50;82.50;;;;;;9164697;19;20029;-64
2023/02/06 15:36:22;;;;;;;15.93;2.90;;;8.50;82.50;;;;;;9169797;19;20014;-65
2023/02/06 15:39:27;;;;;;;21.38;2.83;;;8.50;82.40;;;;;;9166411;19;20510;-63
2023/02/06 15:42:33;;;;;;;19.58;2.70;;;8.50;82.50;;;;;;9166460;19;20486;-64
2023/02/06 15:45:39;;;;;;;15.60;3.00;;;8.50;82.40;;;;;;9171007;19;20015;-62
2023/02/06 15:48:51;;;;;;;15.35;2.85;;;8.50;82.40;;;;;;9168650;19;20483;-63
2023/02/06 15:51:57;;;;;;;16.75;2.28;;;8.40;82.30;;;;;;9165852;19;20033;-61
2023/02/06 15:55:03;;;;;;;16.10;2.55;;;8.40;82.20;;;;;;9165385;19;20018;-64
2023/02/06 15:58:07;;;;;;;20.52;4.00;;;8.40;82.20;;;;;;9167546;19;20032;-60
2023/02/06 16:01:17;;;;;;;21.15;3.13;;;8.40;82.20;;;;;;9166367;19;20109;-64
2023/02/06 16:04:24;;;;;;;24.90;2.95;;;8.40;82.10;;;;;;9165284;19;20041;-66
2023/02/06 16:07:34;;;;;;;12.95;2.20;;;8.40;82.00;;;;;;9168381;19;20010;-63
2023/02/06 16:10:40;;;;;;;16.27;3.28;;;8.40;82.00;;;;;;9151642;19;20066;-64
2023/02/06 16:13:46;;;;;;;13.32;2.95;;;8.40;82.00;;;;;;9169444;19;20023;-61
2023/02/06 16:16:58;;;;;;;21.08;3.63;;;8.30;81.90;;;;;;9165302;19;20023;-64
2023/02/06 16:20:07;;;;;;;14.60;4.65;;;8.30;81.70;;;;;;9162553;19;20025;-64
2023/02/06 16:23:25;;;;;;;18.75;4.63;;;8.30;81.90;;;;;;9164008;19;20483;-62
2023/02/06 16:26:32;;;;;;;29.23;5.22;;;8.30;81.80;;;;;;9168063;19;20018;-63
2023/02/06 16:29:37;;;;;;;22.67;5.18;;;8.20;81.80;;;;;;9162864;19;20025;-63
2023/02/06 16:32:43;;;;;;;22.70;5.15;;;8.20;81.80;;;;;;9162054;19;20101;-67
2023/02/06 16:35:47;;;;;;;;;;;8.20;81.80;;;;;;9163632;19;20050;-62
2023/02/06 16:38:54;;;;;;;20.50;3.60;;;8.20;81.80;;;;;;9162585;19;20557;-66
2023/02/06 16:42:08;;;;;;;24.92;4.38;;;8.20;81.80;;;;;;9157691;19;20049;-66
2023/02/06 16:45:22;;;;;;;18.55;3.13;;;8.20;81.80;;;;;;9159536;19;20019;-64
2023/02/06 16:48:26;;;;;;;12.93;4.00;;;8.10;81.70;;;;;;9155940;19;20041;-66
2023/02/06 16:51:33;;;;;;;18.00;4.07;;;8.10;81.70;;;;;;9156407;19;20884;-65
2023/02/06 16:54:39;;;;;;;22.77;5.28;;;8.00;81.60;;;;;;9164520;19;20018;-65
2023/02/06 16:57:46;;;;;;;23.10;6.32;;;7.90;81.60;;;;;;9162825;19;20870;-66
2023/02/06 17:00:50;;;;;;;22.02;4.70;;;7.90;81.50;;;;;;9160058;19;20570;-69
2023/02/06 17:03:57;;;;;;;26.52;6.10;;;7.80;81.60;;;;;;9159249;19;20363;-66
2023/02/06 17:07:01;;;;;;;21.40;4.78;;;7.70;81.50;;;;;;9159419;19;20471;-67
2023/02/06 17:10:09;;;;;;;22.60;6.38;;;7.70;81.50;;;;;;9156646;19;20017;-66
2023/02/06 17:13:17;;;;;;;17.25;4.90;;;7.60;81.50;;;;;;9158474;19;20034;-65
2023/02/06 17:16:25;;;;;;;19.48;5.53;;;7.50;81.50;;;;;;9159651;19;20019;-66
2023/02/06 17:19:29;;;;;;;19.67;5.82;;;7.40;81.40;;;;;;9162829;19;20023;-67
2023/02/06 17:22:35;;;;;;;27.02;5.38;;;7.40;81.50;;;;;;9158800;19;20113;-68
2023/02/06 17:25:42;;;;;;;20.98;5.22;;;7.30;81.60;;;;;;9161349;19;20019;-64
2023/02/06 17:28:49;;;;;;;25.75;5.22;;;7.20;81.40;;;;;;9159957;19;20340;-66
2023/02/06 17:31:53;;;;;;;34.47;6.97;;;7.10;81.40;;;;;;9163349;19;20015;-65
2023/02/06 17:35:01;;;;;;;23.65;6.15;;;7.10;81.50;;;;;;9162845;19;20022;-67
2023/02/06 17:38:05;;;;;;;27.58;5.55;;;7.00;81.50;;;;;;9159706;19;20014;-66
2023/02/06 17:41:13;;;;;;;19.00;5.22;;;6.90;81.50;;;;;;9162427;19;20759;-66
2023/02/06 17:44:18;;;;;;;17.70;4.57;;;6.80;81.50;;;;;;9166435;19;20662;-65
2023/02/06 17:47:24;;;;;;;24.85;6.18;;;6.80;81.50;;;;;;9163006;19;20022;-68
2023/02/06 17:50:29;;;;;;;31.13;7.10;;;6.70;81.60;;;;;;9161260;19;20053;-65
2023/02/06 17:53:35;;;;;;;28.27;7.05;;;6.60;81.60;;;;;;9163520;19;20026;-65
2023/02/06 17:56:41;;;;;;;;;;;6.60;81.60;;;;;;9174887;19;20471;-65
2023/02/06 17:59:47;;;;;;;20.73;5.03;;;6.60;81.70;;;;;;9167175;19;19918;-69